createdAt,value
2022-11-16T00:00:31.331Z,984.95
2022-11-16T00:01:31.411Z,984.95
2022-11-16T00:02:31.551Z,984.93
2022-11-16T00:03:31.565Z,984.94
2022-11-16T00:04:31.655Z,984.95
2022-11-16T00:05:31.732Z,984.96
2022-11-16T00:06:31.826Z,984.96
2022-11-16T00:07:32.002Z,984.97
2022-11-16T00:08:32.351Z,984.98
2022-11-16T00:09:32.069Z,984.94
2022-11-16T00:10:32.176Z,984.92
2022-11-16T00:11:32.254Z,984.88
2022-11-16T00:12:32.377Z,984.88
2022-11-16T00:13:32.441Z,984.91
2022-11-16T00:14:32.533Z,984.88
2022-11-16T00:15:32.609Z,984.88
2022-11-16T00:16:32.681Z,984.86
2022-11-16T00:17:32.807Z,984.91
2022-11-16T00:18:33.245Z,984.90
2022-11-16T00:19:32.946Z,984.89
2022-11-16T00:20:33.018Z,984.90
2022-11-16T00:21:33.094Z,984.90
2022-11-16T00:22:33.214Z,984.94
2022-11-16T00:23:33.249Z,984.90
2022-11-16T00:24:33.352Z,984.89
2022-11-16T00:25:33.425Z,984.92
2022-11-16T00:26:33.535Z,984.90
2022-11-16T00:27:33.627Z,984.86
2022-11-16T00:28:34.122Z,984.91
2022-11-16T00:29:33.772Z,984.82
2022-11-16T00:30:33.879Z,984.89
2022-11-16T00:31:33.957Z,984.89
2022-11-16T00:32:34.091Z,984.90
2022-11-16T00:33:34.117Z,984.91
2022-11-16T00:34:34.227Z,984.92
2022-11-16T00:35:34.309Z,984.86
2022-11-16T00:36:34.380Z,984.86
2022-11-16T00:37:34.490Z,984.81
2022-11-16T00:38:34.986Z,984.85
2022-11-16T00:39:34.611Z,984.78
2022-11-16T00:40:34.679Z,984.78
2022-11-16T00:41:34.761Z,984.76
2022-11-16T00:42:34.856Z,984.76
2022-11-16T00:43:34.907Z,984.75
2022-11-16T00:44:35.002Z,984.73
2022-11-16T00:45:35.081Z,984.77
2022-11-16T00:46:35.193Z,984.73
2022-11-16T00:47:35.279Z,984.75
2022-11-16T00:48:35.720Z,984.74
2022-11-16T00:49:35.438Z,984.72
2022-11-16T00:50:35.532Z,984.74
2022-11-16T00:51:35.613Z,984.75
2022-11-16T00:52:35.718Z,984.76
2022-11-16T00:53:35.759Z,984.74
2022-11-16T00:54:35.836Z,984.68
2022-11-16T00:55:35.908Z,984.68
2022-11-16T00:56:36.001Z,984.68
2022-11-16T00:57:36.110Z,984.69
2022-11-16T00:58:36.404Z,984.65
2022-11-16T00:59:36.237Z,984.68
2022-11-16T01:00:36.342Z,984.65
2022-11-16T01:01:36.519Z,984.64
2022-11-16T01:02:36.508Z,984.67
2022-11-16T01:03:36.548Z,984.65
2022-11-16T01:04:36.626Z,984.69
2022-11-16T01:05:36.702Z,984.69
2022-11-16T01:06:36.772Z,984.72
2022-11-16T01:07:36.918Z,984.69
2022-11-16T01:08:37.158Z,984.70
2022-11-16T01:09:37.007Z,984.70
2022-11-16T01:10:37.107Z,984.73
2022-11-16T01:11:37.188Z,984.69
2022-11-16T01:12:37.293Z,984.70
2022-11-16T01:13:37.335Z,984.69
2022-11-16T01:14:37.441Z,984.72
2022-11-16T01:15:37.520Z,984.71
2022-11-16T01:16:37.619Z,984.70
2022-11-16T01:17:37.715Z,984.73
2022-11-16T01:18:37.766Z,984.71
2022-11-16T01:19:37.827Z,984.72
2022-11-16T01:20:37.922Z,984.70
2022-11-16T01:21:37.979Z,984.70
2022-11-16T01:22:38.079Z,984.73
2022-11-16T01:23:38.119Z,984.74
2022-11-16T01:24:38.228Z,984.74
2022-11-16T01:25:38.279Z,984.75
2022-11-16T01:26:38.391Z,984.77
2022-11-16T01:27:38.479Z,984.80
2022-11-16T01:28:38.551Z,984.79
2022-11-16T01:29:38.621Z,984.77
2022-11-16T01:30:38.731Z,984.76
2022-11-16T01:31:38.805Z,984.79
2022-11-16T01:32:38.927Z,984.80
2022-11-16T01:33:38.989Z,984.78
2022-11-16T01:34:39.092Z,984.77
2022-11-16T01:35:39.132Z,984.77
2022-11-16T01:36:39.238Z,984.75
2022-11-16T01:37:39.327Z,984.80
2022-11-16T01:38:39.403Z,984.81
2022-11-16T01:39:39.479Z,984.87
2022-11-16T01:40:39.590Z,984.92
2022-11-16T01:41:39.663Z,984.97
2022-11-16T01:42:39.778Z,984.90
2022-11-16T01:43:39.842Z,984.98
2022-11-16T01:44:39.931Z,985.00
2022-11-16T01:45:40.011Z,985.01
2022-11-16T01:46:40.083Z,985.03
2022-11-16T01:47:40.176Z,985.03
2022-11-16T01:48:40.320Z,985.01
2022-11-16T01:49:40.324Z,984.91
2022-11-16T01:50:40.428Z,984.95
2022-11-16T01:51:40.509Z,984.93
2022-11-16T01:52:40.646Z,984.98
2022-11-16T01:53:40.686Z,985.00
2022-11-16T01:54:40.779Z,984.89
2022-11-16T01:55:40.859Z,984.91
2022-11-16T01:56:40.953Z,984.90
2022-11-16T01:57:41.070Z,984.87
2022-11-16T01:58:41.144Z,984.95
2022-11-16T01:59:41.231Z,984.90
2022-11-16T02:00:41.380Z,984.93
2022-11-16T02:01:41.439Z,984.93
2022-11-16T02:02:41.514Z,984.87
2022-11-16T02:03:41.555Z,984.84
2022-11-16T02:04:41.626Z,984.84
2022-11-16T02:05:41.704Z,984.85
2022-11-16T02:06:41.795Z,984.83
2022-11-16T02:07:41.896Z,984.78
2022-11-16T02:08:41.966Z,984.80
2022-11-16T02:09:42.048Z,984.78
2022-11-16T02:10:42.148Z,984.81
2022-11-16T02:11:42.232Z,984.78
2022-11-16T02:12:42.318Z,984.76
2022-11-16T02:13:42.358Z,984.75
2022-11-16T02:14:42.457Z,984.73
2022-11-16T02:15:42.538Z,984.70
2022-11-16T02:16:42.634Z,984.66
2022-11-16T02:17:42.759Z,984.63
2022-11-16T02:18:42.793Z,984.68
2022-11-16T02:19:42.871Z,984.65
2022-11-16T02:20:42.959Z,984.68
2022-11-16T02:21:43.040Z,984.65
2022-11-16T02:22:43.119Z,984.64
2022-11-16T02:23:43.198Z,984.63
2022-11-16T02:24:43.309Z,984.59
2022-11-16T02:25:43.385Z,984.51
2022-11-16T02:26:43.520Z,984.57
2022-11-16T02:27:43.593Z,984.56
2022-11-16T02:28:43.664Z,984.46
2022-11-16T02:29:43.743Z,984.44
2022-11-16T02:30:43.817Z,984.46
2022-11-16T02:31:43.928Z,984.36
2022-11-16T02:32:44.025Z,984.36
2022-11-16T02:33:44.098Z,984.35
2022-11-16T02:34:44.174Z,984.36
2022-11-16T02:35:44.241Z,984.37
2022-11-16T02:36:44.322Z,984.33
2022-11-16T02:37:44.416Z,984.35
2022-11-16T02:38:44.455Z,984.29
2022-11-16T02:39:44.561Z,984.30
2022-11-16T02:40:44.628Z,984.29
2022-11-16T02:41:44.700Z,984.26
2022-11-16T02:42:44.801Z,984.30
2022-11-16T02:43:44.872Z,984.23
2022-11-16T02:44:44.949Z,984.22
2022-11-16T02:45:45.043Z,984.19
2022-11-16T02:46:45.121Z,984.19
2022-11-16T02:47:45.214Z,984.12
2022-11-16T02:48:45.255Z,984.09
2022-11-16T02:49:45.345Z,984.08
2022-11-16T02:50:45.416Z,984.09
2022-11-16T02:51:45.522Z,984.12
2022-11-16T02:52:45.627Z,984.10
2022-11-16T02:53:45.674Z,984.12
2022-11-16T02:54:45.752Z,984.05
2022-11-16T02:55:45.860Z,984.08
2022-11-16T02:56:45.939Z,984.05
2022-11-16T02:57:46.060Z,984.08
2022-11-16T02:58:46.119Z,984.06
2022-11-16T02:59:46.192Z,984.03
2022-11-16T03:00:46.327Z,984.09
2022-11-16T03:01:46.350Z,984.17
2022-11-16T03:02:46.444Z,984.24
2022-11-16T03:03:46.504Z,984.28
2022-11-16T03:04:46.590Z,984.39
2022-11-16T03:05:46.694Z,984.44
2022-11-16T03:06:46.908Z,984.46
2022-11-16T03:07:46.865Z,984.45
2022-11-16T03:08:46.924Z,984.41
2022-11-16T03:09:47.014Z,984.36
2022-11-16T03:10:47.096Z,984.34
2022-11-16T03:11:47.163Z,984.30
2022-11-16T03:12:47.252Z,984.33
2022-11-16T03:13:47.326Z,984.34
2022-11-16T03:14:47.405Z,984.32
2022-11-16T03:15:47.475Z,984.31
2022-11-16T03:16:47.555Z,984.30
2022-11-16T03:17:47.662Z,984.32
2022-11-16T03:18:47.703Z,984.39
2022-11-16T03:19:47.775Z,984.47
2022-11-16T03:20:47.849Z,984.53
2022-11-16T03:21:47.973Z,984.48
2022-11-16T03:22:48.032Z,984.48
2022-11-16T03:23:48.106Z,984.43
2022-11-16T03:24:48.178Z,984.37
2022-11-16T03:25:48.282Z,984.37
2022-11-16T03:26:48.358Z,984.37
2022-11-16T03:27:48.481Z,984.37
2022-11-16T03:28:48.537Z,984.37
2022-11-16T03:29:48.641Z,984.40
2022-11-16T03:30:48.720Z,984.35
2022-11-16T03:31:48.790Z,984.38
2022-11-16T03:32:48.884Z,984.38
2022-11-16T03:33:48.953Z,984.37
2022-11-16T03:34:49.031Z,984.42
2022-11-16T03:35:49.116Z,984.45
2022-11-16T03:36:49.177Z,984.42
2022-11-16T03:37:49.293Z,984.46
2022-11-16T03:38:49.367Z,984.51
2022-11-16T03:39:49.473Z,984.55
2022-11-16T03:40:49.546Z,984.56
2022-11-16T03:41:49.665Z,984.59
2022-11-16T03:42:49.730Z,984.55
2022-11-16T03:43:49.798Z,984.60
2022-11-16T03:44:49.859Z,984.57
2022-11-16T03:45:49.954Z,984.58
2022-11-16T03:46:50.032Z,984.58
2022-11-16T03:47:50.153Z,984.59
2022-11-16T03:48:50.231Z,984.60
2022-11-16T03:49:50.339Z,984.61
2022-11-16T03:50:50.427Z,984.61
2022-11-16T03:51:50.537Z,984.61
2022-11-16T03:52:50.636Z,984.63
2022-11-16T03:53:50.721Z,984.66
2022-11-16T03:54:50.804Z,984.64
2022-11-16T03:55:50.871Z,984.62
2022-11-16T03:56:50.952Z,984.63
2022-11-16T03:57:51.036Z,984.62
2022-11-16T03:58:51.084Z,984.66
2022-11-16T03:59:51.180Z,984.65
2022-11-16T04:00:51.339Z,984.65
2022-11-16T04:01:51.357Z,984.65
2022-11-16T04:02:51.450Z,984.67
2022-11-16T04:03:51.526Z,984.64
2022-11-16T04:04:51.606Z,984.65
2022-11-16T04:05:51.715Z,984.68
2022-11-16T04:06:51.818Z,984.71
2022-11-16T04:07:51.898Z,984.76
2022-11-16T04:08:51.939Z,984.81
2022-11-16T04:09:52.022Z,984.84
2022-11-16T04:10:52.100Z,984.82
2022-11-16T04:11:52.208Z,984.83
2022-11-16T04:12:52.306Z,984.83
2022-11-16T04:13:52.376Z,984.77
2022-11-16T04:14:52.460Z,984.78
2022-11-16T04:15:52.565Z,984.79
2022-11-16T04:16:52.647Z,984.81
2022-11-16T04:17:52.737Z,984.82
2022-11-16T04:18:52.783Z,984.82
2022-11-16T04:19:57.762Z,984.83
2022-11-16T04:20:52.944Z,984.87
2022-11-16T04:21:53.032Z,984.83
2022-11-16T04:22:53.125Z,984.87
2022-11-16T04:23:53.198Z,984.85
2022-11-16T04:24:53.262Z,984.80
2022-11-16T04:25:53.379Z,984.80
2022-11-16T04:26:53.432Z,984.81
2022-11-16T04:27:53.548Z,984.81
2022-11-16T04:28:53.592Z,984.82
2022-11-16T04:29:53.658Z,984.83
2022-11-16T04:30:53.743Z,984.85
2022-11-16T04:31:53.812Z,984.82
2022-11-16T04:32:53.906Z,984.87
2022-11-16T04:33:53.981Z,984.84
2022-11-16T04:34:54.061Z,984.94
2022-11-16T04:35:54.169Z,984.96
2022-11-16T04:36:54.226Z,984.89
2022-11-16T04:37:54.357Z,984.91
2022-11-16T04:38:54.397Z,984.93
2022-11-16T04:39:54.504Z,984.92
2022-11-16T04:40:54.584Z,984.94
2022-11-16T04:41:54.675Z,984.94
2022-11-16T04:42:54.765Z,984.99
2022-11-16T04:43:54.856Z,984.99
2022-11-16T04:44:54.936Z,984.99
2022-11-16T04:45:55.007Z,985.01
2022-11-16T04:46:55.070Z,984.96
2022-11-16T04:47:55.155Z,984.95
2022-11-16T04:48:55.196Z,984.99
2022-11-16T04:49:55.315Z,984.99
2022-11-16T04:50:55.383Z,985.02
2022-11-16T04:51:55.473Z,985.00
2022-11-16T04:52:55.576Z,985.06
2022-11-16T04:53:55.624Z,985.09
2022-11-16T04:54:55.702Z,985.10
2022-11-16T04:56:00.624Z,985.06
2022-11-16T04:56:55.900Z,985.09
2022-11-16T04:57:55.981Z,985.12
2022-11-16T04:58:56.023Z,985.14
2022-11-16T04:59:56.093Z,985.14
2022-11-16T05:00:56.229Z,985.18
2022-11-16T05:01:56.306Z,985.20
2022-11-16T05:03:01.069Z,985.18
2022-11-16T05:03:56.474Z,985.18
2022-11-16T05:04:56.542Z,985.13
2022-11-16T05:05:56.646Z,985.12
2022-11-16T05:06:56.738Z,985.10
2022-11-16T05:07:56.817Z,985.13
2022-11-16T05:08:56.856Z,985.12
2022-11-16T05:09:56.966Z,985.11
2022-11-16T05:10:57.050Z,985.15
2022-11-16T05:11:57.119Z,985.11
2022-11-16T05:12:57.213Z,985.11
2022-11-16T05:13:57.287Z,985.15
2022-11-16T05:14:57.370Z,985.14
2022-11-16T05:15:57.458Z,985.14
2022-11-16T05:16:57.539Z,985.14
2022-11-16T05:17:57.643Z,985.11
2022-11-16T05:18:57.696Z,985.13
2022-11-16T05:19:57.761Z,985.12
2022-11-16T05:20:57.841Z,985.11
2022-11-16T05:21:57.944Z,985.12
2022-11-16T05:22:58.050Z,985.19
2022-11-16T05:23:58.126Z,985.14
2022-11-16T05:24:58.203Z,985.17
2022-11-16T05:25:58.293Z,985.16
2022-11-16T05:26:58.372Z,985.15
2022-11-16T05:27:58.491Z,985.20
2022-11-16T05:28:58.534Z,985.20
2022-11-16T05:29:58.603Z,985.19
2022-11-16T05:30:58.699Z,985.20
2022-11-16T05:31:58.762Z,985.20
2022-11-16T05:32:58.852Z,985.21
2022-11-16T05:33:58.936Z,985.20
2022-11-16T05:34:58.997Z,985.22
2022-11-16T05:35:59.117Z,985.22
2022-11-16T05:36:59.214Z,985.22
2022-11-16T05:37:59.280Z,985.24
2022-11-16T05:38:59.339Z,985.27
2022-11-16T05:39:59.450Z,985.27
2022-11-16T05:40:59.527Z,985.23
2022-11-16T05:41:59.641Z,985.22
2022-11-16T05:42:59.721Z,985.21
2022-11-16T05:43:59.821Z,985.25
2022-11-16T05:44:59.889Z,985.22
2022-11-16T05:45:59.991Z,985.26
2022-11-16T05:47:00.073Z,985.26
2022-11-16T05:48:00.193Z,985.30
2022-11-16T05:49:00.231Z,985.30
2022-11-16T05:50:00.335Z,985.27
2022-11-16T05:51:00.413Z,985.22
2022-11-16T05:52:00.519Z,985.25
2022-11-16T05:53:00.659Z,985.25
2022-11-16T05:54:00.814Z,985.22
2022-11-16T05:55:00.758Z,985.28
2022-11-16T05:56:00.941Z,985.27
2022-11-16T05:57:00.932Z,985.28
2022-11-16T05:58:01.035Z,985.33
2022-11-16T05:59:01.116Z,985.34
2022-11-16T06:00:01.182Z,985.35
2022-11-16T06:01:01.264Z,985.42
2022-11-16T06:02:01.349Z,985.42
2022-11-16T06:03:01.513Z,985.45
2022-11-16T06:04:01.515Z,985.52
2022-11-16T06:05:01.581Z,985.55
2022-11-16T06:06:01.690Z,985.57
2022-11-16T06:07:01.798Z,985.58
2022-11-16T06:08:01.882Z,985.61
2022-11-16T06:09:01.920Z,985.68
2022-11-16T06:10:02.028Z,985.68
2022-11-16T06:11:02.107Z,985.68
2022-11-16T06:12:02.205Z,985.67
2022-11-16T06:13:02.301Z,985.68
2022-11-16T06:14:02.377Z,985.70
2022-11-16T06:15:02.455Z,985.75
2022-11-16T06:16:02.566Z,985.79
2022-11-16T06:17:02.642Z,985.80
2022-11-16T06:18:02.763Z,985.83
2022-11-16T06:19:02.802Z,985.85
2022-11-16T06:20:02.912Z,985.84
2022-11-16T06:21:02.997Z,985.89
2022-11-16T06:22:03.096Z,985.85
2022-11-16T06:23:03.189Z,985.89
2022-11-16T06:24:03.280Z,985.90
2022-11-16T06:25:03.358Z,985.94
2022-11-16T06:26:03.455Z,985.94
2022-11-16T06:27:03.518Z,985.91
2022-11-16T06:28:07.655Z,985.91
2022-11-16T06:29:03.698Z,985.94
2022-11-16T06:30:03.780Z,985.94
2022-11-16T06:31:03.859Z,985.96
2022-11-16T06:32:03.935Z,985.94
2022-11-16T06:33:04.031Z,985.95
2022-11-16T06:34:04.093Z,985.94
2022-11-16T06:35:04.154Z,985.89
2022-11-16T06:36:04.258Z,985.89
2022-11-16T06:37:04.333Z,985.90
2022-11-16T06:38:04.456Z,985.91
2022-11-16T06:39:04.527Z,985.91
2022-11-16T06:40:04.621Z,985.95
2022-11-16T06:41:04.691Z,985.90
2022-11-16T06:42:04.773Z,985.90
2022-11-16T06:43:04.864Z,985.92
2022-11-16T06:44:04.938Z,985.92
2022-11-16T06:45:05.007Z,985.94
2022-11-16T06:46:05.091Z,985.94
2022-11-16T06:47:05.199Z,985.92
2022-11-16T06:48:05.301Z,985.92
2022-11-16T06:49:05.389Z,985.91
2022-11-16T06:50:05.477Z,985.88
2022-11-16T06:51:05.569Z,985.88
2022-11-16T06:52:05.637Z,985.85
2022-11-16T06:53:05.770Z,985.88
2022-11-16T06:54:05.803Z,985.90
2022-11-16T06:55:05.905Z,985.88
2022-11-16T06:56:05.989Z,985.92
2022-11-16T06:57:06.082Z,985.95
2022-11-16T06:58:06.171Z,985.97
2022-11-16T06:59:06.250Z,986.01
2022-11-16T07:00:06.324Z,986.05
2022-11-16T07:01:06.417Z,986.06
2022-11-16T07:02:06.517Z,986.12
2022-11-16T07:03:06.611Z,986.13
2022-11-16T07:04:06.641Z,986.15
2022-11-16T07:05:06.750Z,986.14
2022-11-16T07:06:06.818Z,986.17
2022-11-16T07:07:06.961Z,986.19
2022-11-16T07:08:06.978Z,986.24
2022-11-16T07:09:07.042Z,986.26
2022-11-16T07:10:07.113Z,986.29
2022-11-16T07:11:07.222Z,986.31
2022-11-16T07:12:07.285Z,986.31
2022-11-16T07:13:07.396Z,986.36
2022-11-16T07:14:07.463Z,986.35
2022-11-16T07:15:07.562Z,986.33
2022-11-16T07:16:07.639Z,986.32
2022-11-16T07:17:09.641Z,986.32
2022-11-16T07:18:07.826Z,986.32
2022-11-16T07:19:07.912Z,986.35
2022-11-16T07:20:08.011Z,986.35
2022-11-16T07:21:08.089Z,986.35
2022-11-16T07:22:08.154Z,986.36
2022-11-16T07:23:13.834Z,986.33
2022-11-16T07:24:08.327Z,986.32
2022-11-16T07:25:08.420Z,986.33
2022-11-16T07:26:08.486Z,986.37
2022-11-16T07:27:08.562Z,986.38
2022-11-16T07:28:08.644Z,986.36
2022-11-16T07:29:08.702Z,986.39
2022-11-16T07:30:08.788Z,986.39
2022-11-16T07:31:08.884Z,986.40
2022-11-16T07:32:08.955Z,986.39
2022-11-16T07:33:09.067Z,986.41
2022-11-16T07:34:09.133Z,986.43
2022-11-16T07:35:09.229Z,986.47
2022-11-16T07:36:09.287Z,986.44
2022-11-16T07:37:09.393Z,986.48
2022-11-16T07:38:12.102Z,986.50
2022-11-16T07:39:09.550Z,986.50
2022-11-16T07:40:09.626Z,986.53
2022-11-16T07:41:09.749Z,986.55
2022-11-16T07:42:09.806Z,986.52
2022-11-16T07:43:09.926Z,986.49
2022-11-16T07:44:12.212Z,986.52
2022-11-16T07:45:10.088Z,986.51
2022-11-16T07:47:10.252Z,986.51
2022-11-16T07:48:10.346Z,986.55
2022-11-16T07:49:11.616Z,986.51
2022-11-16T07:50:10.470Z,986.55
2022-11-16T07:51:10.542Z,986.55
2022-11-16T07:52:10.618Z,986.58
2022-11-16T07:53:10.716Z,986.59
2022-11-16T07:54:10.755Z,986.61
2022-11-16T07:55:10.840Z,986.60
2022-11-16T07:56:10.913Z,986.64
2022-11-16T07:57:11.021Z,986.67
2022-11-16T07:58:11.116Z,986.71
2022-11-16T07:59:11.186Z,986.75
2022-11-16T08:00:11.262Z,986.70
2022-11-16T08:01:11.334Z,986.76
2022-11-16T08:02:11.431Z,986.78
2022-11-16T08:03:11.533Z,986.83
2022-11-16T08:04:11.568Z,986.86
2022-11-16T08:05:11.677Z,986.86
2022-11-16T08:06:11.760Z,986.85
2022-11-16T08:07:11.914Z,986.85
2022-11-16T08:08:11.917Z,986.90
2022-11-16T08:09:11.969Z,986.89
2022-11-16T08:10:12.079Z,986.86
2022-11-16T08:11:12.143Z,986.92
2022-11-16T08:12:12.218Z,986.94
2022-11-16T08:13:12.340Z,987.02
2022-11-16T08:14:12.369Z,987.03
2022-11-16T08:15:12.437Z,987.04
2022-11-16T08:16:12.514Z,987.10
2022-11-16T08:17:12.602Z,987.13
2022-11-16T08:18:12.701Z,987.12
2022-11-16T08:19:12.754Z,987.15
2022-11-16T08:20:12.831Z,987.16
2022-11-16T08:21:12.905Z,987.17
2022-11-16T08:22:12.986Z,987.14
2022-11-16T08:23:13.088Z,987.10
2022-11-16T08:24:13.129Z,987.14
2022-11-16T08:25:13.219Z,987.11
2022-11-16T08:26:13.282Z,987.05
2022-11-16T08:27:13.367Z,987.08
2022-11-16T08:28:13.457Z,987.08
2022-11-16T08:29:13.562Z,987.08
2022-11-16T08:30:13.601Z,987.12
2022-11-16T08:31:13.741Z,987.14
2022-11-16T08:32:13.790Z,987.10
2022-11-16T08:33:13.909Z,987.12
2022-11-16T08:34:13.942Z,987.12
2022-11-16T08:35:14.039Z,987.13
2022-11-16T08:36:14.596Z,987.10
2022-11-16T08:37:14.204Z,987.05
2022-11-16T08:38:14.292Z,987.04
2022-11-16T08:39:14.359Z,987.01
2022-11-16T08:40:14.421Z,987.10
2022-11-16T08:41:14.523Z,987.04
2022-11-16T08:42:14.610Z,987.07
2022-11-16T08:43:14.703Z,987.04
2022-11-16T08:44:14.766Z,987.08
2022-11-16T08:45:14.853Z,987.08
2022-11-16T08:46:14.922Z,987.09
2022-11-16T08:47:15.007Z,987.06
2022-11-16T08:48:15.107Z,987.05
2022-11-16T08:49:15.173Z,987.00
2022-11-16T08:50:15.248Z,987.05
2022-11-16T08:51:18.492Z,987.00
2022-11-16T08:52:15.472Z,987.00
2022-11-16T08:53:15.550Z,987.04
2022-11-16T08:54:15.614Z,986.98
2022-11-16T08:55:15.704Z,986.99
2022-11-16T08:56:15.777Z,986.96
2022-11-16T08:57:15.879Z,987.00
2022-11-16T08:58:15.973Z,986.95
2022-11-16T08:59:16.062Z,986.96
2022-11-16T09:00:16.120Z,986.96
2022-11-16T09:01:16.309Z,986.95
2022-11-16T09:02:16.324Z,986.98
2022-11-16T09:03:16.381Z,986.99
2022-11-16T09:04:16.448Z,986.98
2022-11-16T09:05:16.528Z,987.02
2022-11-16T09:06:16.597Z,987.08
2022-11-16T09:07:16.754Z,987.01
2022-11-16T09:08:16.760Z,987.01
2022-11-16T09:09:16.841Z,987.06
2022-11-16T09:10:16.916Z,987.05
2022-11-16T09:11:17.016Z,987.09
2022-11-16T09:12:17.092Z,987.05
2022-11-16T09:13:17.211Z,987.11
2022-11-16T09:14:17.279Z,987.11
2022-11-16T09:15:17.379Z,987.09
2022-11-16T09:16:17.455Z,987.12
2022-11-16T09:17:21.868Z,987.14
2022-11-16T09:18:17.649Z,987.16
2022-11-16T09:19:17.718Z,987.18
2022-11-16T09:20:17.793Z,987.18
2022-11-16T09:21:17.897Z,987.21
2022-11-16T09:22:17.972Z,987.18
2022-11-16T09:23:23.765Z,987.17
2022-11-16T09:24:18.152Z,987.22
2022-11-16T09:25:18.217Z,987.23
2022-11-16T09:26:18.291Z,987.18
2022-11-16T09:27:18.392Z,987.18
2022-11-16T09:28:18.475Z,987.19
2022-11-16T09:29:18.542Z,987.18
2022-11-16T09:30:18.614Z,987.15
2022-11-16T09:31:23.167Z,987.14
2022-11-16T09:32:18.767Z,987.20
2022-11-16T09:33:18.884Z,987.23
2022-11-16T09:34:18.950Z,987.25
2022-11-16T09:35:19.042Z,987.26
2022-11-16T09:36:19.112Z,987.27
2022-11-16T09:37:19.202Z,987.24
2022-11-16T09:38:26.985Z,987.26
2022-11-16T09:39:31.086Z,987.24
2022-11-16T09:40:19.388Z,987.24
2022-11-16T09:41:19.457Z,987.27
2022-11-16T09:42:19.536Z,987.28
2022-11-16T09:43:19.628Z,987.32
2022-11-16T09:44:19.665Z,987.32
2022-11-16T09:45:19.753Z,987.30
2022-11-16T09:46:19.826Z,987.31
2022-11-16T09:47:19.944Z,987.30
2022-11-16T09:48:19.996Z,987.32
2022-11-16T09:49:20.080Z,987.29
2022-11-16T09:50:20.149Z,987.30
2022-11-16T09:51:20.253Z,987.31
2022-11-16T09:52:20.330Z,987.27
2022-11-16T09:53:20.463Z,987.23
2022-11-16T09:54:20.482Z,987.18
2022-11-16T09:55:20.582Z,987.19
2022-11-16T09:56:22.377Z,987.21
2022-11-16T09:57:20.738Z,987.22
2022-11-16T09:58:20.826Z,987.19
2022-11-16T09:59:20.891Z,987.23
2022-11-16T10:00:20.947Z,987.24
2022-11-16T10:01:21.136Z,987.18
2022-11-16T10:02:21.103Z,987.22
2022-11-16T10:03:21.209Z,987.19
2022-11-16T10:04:21.246Z,987.17
2022-11-16T10:05:21.337Z,987.15
2022-11-16T10:06:21.415Z,987.16
2022-11-16T10:07:21.545Z,987.15
2022-11-16T10:08:21.600Z,987.15
2022-11-16T10:09:21.671Z,987.17
2022-11-16T10:10:21.761Z,987.17
2022-11-16T10:11:21.860Z,987.17
2022-11-16T10:12:21.932Z,987.17
2022-11-16T10:13:22.045Z,987.18
2022-11-16T10:14:22.113Z,987.20
2022-11-16T10:15:22.215Z,987.20
2022-11-16T10:16:22.291Z,987.14
2022-11-16T10:17:22.393Z,987.16
2022-11-16T10:18:22.476Z,987.12
2022-11-16T10:19:22.562Z,987.16
2022-11-16T10:20:26.297Z,987.15
2022-11-16T10:21:22.717Z,987.15
2022-11-16T10:22:22.795Z,987.20
2022-11-16T10:23:22.897Z,987.23
2022-11-16T10:24:22.939Z,987.21
2022-11-16T10:25:23.013Z,987.19
2022-11-16T10:26:23.090Z,987.19
2022-11-16T10:27:23.179Z,987.22
2022-11-16T10:28:23.266Z,987.20
2022-11-16T10:29:23.339Z,987.15
2022-11-16T10:30:23.417Z,987.13
2022-11-16T10:31:23.508Z,987.12
2022-11-16T10:32:23.580Z,987.08
2022-11-16T10:33:23.717Z,987.14
2022-11-16T10:34:23.755Z,987.10
2022-11-16T10:35:23.853Z,987.07
2022-11-16T10:36:23.929Z,987.07
2022-11-16T10:37:24.002Z,987.06
2022-11-16T10:38:24.096Z,987.07
2022-11-16T10:39:24.137Z,987.03
2022-11-16T10:40:24.212Z,987.01
2022-11-16T10:41:24.289Z,986.97
2022-11-16T10:42:24.365Z,986.91
2022-11-16T10:43:24.468Z,986.95
2022-11-16T10:44:24.512Z,986.91
2022-11-16T10:45:24.587Z,986.89
2022-11-16T10:46:24.699Z,986.95
2022-11-16T10:47:27.110Z,986.93
2022-11-16T10:48:24.902Z,986.92
2022-11-16T10:49:24.944Z,986.91
2022-11-16T10:50:25.051Z,986.95
2022-11-16T10:51:25.127Z,986.92
2022-11-16T10:52:25.234Z,986.92
2022-11-16T10:53:25.304Z,986.90
2022-11-16T10:54:25.377Z,986.88
2022-11-16T10:55:25.457Z,986.89
2022-11-16T10:56:25.527Z,986.88
2022-11-16T10:57:25.602Z,986.89
2022-11-16T10:58:25.728Z,986.87
2022-11-16T10:59:25.767Z,986.89
2022-11-16T11:00:25.854Z,986.84
2022-11-16T11:01:25.951Z,986.81
2022-11-16T11:02:25.980Z,986.81
2022-11-16T11:03:26.076Z,986.74
2022-11-16T11:04:26.116Z,986.77
2022-11-16T11:05:26.187Z,986.77
2022-11-16T11:06:26.260Z,986.73
2022-11-16T11:07:26.513Z,986.75
2022-11-16T11:08:26.672Z,986.79
2022-11-16T11:09:26.503Z,986.77
2022-11-16T11:10:26.883Z,986.72
2022-11-16T11:11:26.667Z,986.77
2022-11-16T11:12:26.747Z,986.79
2022-11-16T11:13:26.844Z,986.73
2022-11-16T11:14:26.905Z,986.75
2022-11-16T11:15:27.359Z,986.73
2022-11-16T11:16:27.059Z,986.69
2022-11-16T11:17:27.132Z,986.72
2022-11-16T11:18:27.221Z,986.74
2022-11-16T11:19:27.297Z,986.75
2022-11-16T11:20:27.377Z,986.75
2022-11-16T11:21:27.453Z,986.71
2022-11-16T11:22:27.543Z,986.73
2022-11-16T11:23:27.623Z,986.61
2022-11-16T11:24:44.781Z,986.64
2022-11-16T11:25:27.766Z,986.63
2022-11-16T11:26:33.110Z,986.59
2022-11-16T11:27:27.927Z,986.60
2022-11-16T11:28:28.018Z,986.59
2022-11-16T11:29:28.087Z,986.56
2022-11-16T11:30:28.165Z,986.60
2022-11-16T11:31:28.235Z,986.60
2022-11-16T11:32:28.315Z,986.59
2022-11-16T11:33:28.414Z,986.55
2022-11-16T11:34:28.453Z,986.56
2022-11-16T11:35:28.563Z,986.59
2022-11-16T11:36:28.641Z,986.56
2022-11-16T11:37:28.736Z,986.58
2022-11-16T11:38:28.825Z,986.58
2022-11-16T11:39:28.962Z,986.53
2022-11-16T11:40:28.964Z,986.55
2022-11-16T11:41:29.058Z,986.52
2022-11-16T11:42:29.131Z,986.54
2022-11-16T11:43:29.232Z,986.49
2022-11-16T11:44:29.341Z,986.46
2022-11-16T11:45:29.343Z,986.46
2022-11-16T11:46:56.118Z,986.46
2022-11-16T11:47:56.112Z,986.41
2022-11-16T11:48:29.605Z,986.37
2022-11-16T11:49:33.624Z,986.39
2022-11-16T11:50:29.725Z,986.38
2022-11-16T11:51:29.795Z,986.35
2022-11-16T11:52:29.870Z,986.39
2022-11-16T11:53:29.965Z,986.35
2022-11-16T11:54:30.002Z,986.39
2022-11-16T11:55:30.074Z,986.38
2022-11-16T11:56:30.152Z,986.31
2022-11-16T11:57:30.244Z,986.36
2022-11-16T11:58:30.345Z,986.32
2022-11-16T11:59:30.420Z,986.29
2022-11-16T12:00:30.490Z,986.30
2022-11-16T12:01:30.578Z,986.29
2022-11-16T12:02:30.664Z,986.29
2022-11-16T12:03:31.017Z,986.25
2022-11-16T12:04:30.791Z,986.25
2022-11-16T12:05:30.884Z,986.24
2022-11-16T12:06:30.941Z,986.19
2022-11-16T12:07:31.036Z,986.22
2022-11-16T12:08:31.080Z,986.20
2022-11-16T12:09:31.147Z,986.17
2022-11-16T12:10:31.221Z,986.21
2022-11-16T12:11:31.310Z,986.17
2022-11-16T12:12:31.372Z,986.15
2022-11-16T12:13:31.636Z,986.20
2022-11-16T12:14:31.520Z,986.18
2022-11-16T12:15:31.604Z,986.15
2022-11-16T12:16:31.677Z,986.19
2022-11-16T12:17:31.790Z,986.12
2022-11-16T12:18:31.880Z,986.08
2022-11-16T12:19:31.942Z,986.07
2022-11-16T12:20:32.012Z,986.03
2022-11-16T12:21:32.078Z,986.05
2022-11-16T12:22:32.145Z,986.00
2022-11-16T12:23:32.678Z,985.99
2022-11-16T12:24:32.296Z,985.98
2022-11-16T12:25:32.412Z,985.98
2022-11-16T12:26:32.493Z,986.00
2022-11-16T12:27:32.560Z,985.97
2022-11-16T12:28:32.649Z,985.97
2022-11-16T12:29:32.714Z,985.98
2022-11-16T12:30:32.792Z,985.95